createdAt,value
2022-10-03T00:01:47.967Z,3.28
2022-10-03T00:04:32.684Z,3.30
2022-10-03T00:07:24.159Z,4.03
2022-10-03T00:09:56.338Z,3.72
2022-10-03T00:13:01.944Z,3.88
2022-10-03T00:16:20.831Z,4.13
2022-10-03T00:19:23.137Z,3.60
2022-10-03T00:22:10.685Z,4.43
2022-10-03T00:24:46.754Z,3.65
2022-10-03T00:27:43.241Z,3.60
2022-10-03T00:30:16.868Z,3.70
2022-10-03T00:33:21.615Z,4.38
2022-10-03T00:35:58.841Z,3.25
2022-10-03T00:38:32.182Z,4.38
2022-10-03T00:41:06.265Z,3.45
2022-10-03T00:44:28.500Z,3.70
2022-10-03T00:46:55.521Z,2.97
2022-10-03T00:49:44.423Z,3.70
2022-10-03T00:52:33.001Z,4.07
2022-10-03T00:55:11.939Z,2.47
2022-10-03T00:57:57.436Z,2.78
2022-10-03T01:00:28.746Z,3.08
2022-10-03T01:03:16.737Z,3.00
2022-10-03T01:05:49.899Z,2.08
2022-10-03T01:08:41.374Z,2.50
2022-10-03T01:11:11.281Z,2.22
2022-10-03T01:14:09.556Z,2.40
2022-10-03T01:16:58.844Z,2.45
2022-10-03T01:19:37.679Z,2.38
2022-10-03T01:22:42.400Z,1.67
2022-10-03T01:25:36.241Z,2.45
2022-10-03T01:28:55.734Z,2.00
2022-10-03T01:31:38.619Z,2.33
2022-10-03T01:34:25.705Z,1.33
2022-10-03T01:37:07.997Z,1.95
2022-10-03T01:39:48.361Z,2.10
2022-10-03T01:42:31.519Z,2.22
2022-10-03T01:45:07.340Z,1.73
2022-10-03T01:48:03.374Z,3.60
2022-10-03T01:50:59.139Z,2.17
2022-10-03T01:53:45.106Z,2.45
2022-10-03T01:56:41.687Z,2.50
2022-10-03T01:59:21.681Z,1.85
2022-10-03T02:02:13.952Z,1.67
2022-10-03T02:05:05.571Z,1.80
2022-10-03T02:07:41.561Z,1.65
2022-10-03T02:10:28.606Z,1.90
2022-10-03T02:13:04.770Z,2.25
2022-10-03T02:15:54.634Z,1.60
2022-10-03T02:18:38.658Z,1.92
2022-10-03T02:21:11.606Z,1.88
2022-10-03T02:23:44.218Z,2.70
2022-10-03T02:26:25.966Z,2.45
2022-10-03T02:29:19.055Z,2.03
2022-10-03T02:32:03.936Z,2.00
2022-10-03T02:34:49.785Z,2.20
2022-10-03T02:37:35.317Z,2.65
2022-10-03T02:40:11.438Z,2.10
2022-10-03T02:42:59.995Z,2.28
2022-10-03T02:45:43.334Z,2.28
2022-10-03T02:48:47.969Z,2.05
2022-10-03T02:51:39.932Z,1.92
2022-10-03T02:54:31.102Z,2.05
2022-10-03T02:57:25.192Z,1.77
2022-10-03T03:00:06.487Z,2.33
2022-10-03T03:03:04.549Z,2.28
2022-10-03T03:05:44.993Z,1.90
2022-10-03T03:08:37.016Z,2.53
2022-10-03T03:11:28.007Z,3.85
2022-10-03T03:14:48.837Z,2.10
2022-10-03T03:18:04.169Z,1.60
2022-10-03T03:20:52.343Z,3.90
2022-10-03T03:23:29.394Z,2.97
2022-10-03T03:26:23.585Z,4.25
2022-10-03T03:28:55.694Z,10.50
2022-10-03T03:32:03.423Z,33.63
2022-10-03T03:34:56.488Z,39.50
2022-10-03T03:37:42.588Z,29.20
2022-10-03T03:40:29.699Z,13.07
2022-10-03T03:43:02.677Z,21.25
2022-10-03T03:45:58.258Z,41.10
2022-10-03T03:51:28.306Z,16.55
2022-10-03T03:54:36.567Z,42.88
2022-10-03T03:57:06.490Z,13.45
2022-10-03T04:00:18.352Z,6.28
2022-10-03T04:03:03.995Z,3.00
2022-10-03T04:05:40.805Z,2.70
2022-10-03T04:08:19.481Z,2.78
2022-10-03T04:11:12.385Z,2.70
2022-10-03T04:14:17.026Z,8.98
2022-10-03T04:17:22.447Z,3.45
2022-10-03T04:20:21.160Z,4.50
2022-10-03T04:23:09.383Z,3.15
2022-10-03T04:25:54.717Z,2.50
2022-10-03T04:29:00.558Z,2.58
2022-10-03T04:31:44.405Z,2.25
2022-10-03T04:34:42.667Z,2.85
2022-10-03T04:37:20.178Z,2.47
2022-10-03T04:39:53.929Z,6.47
2022-10-03T04:42:39.596Z,24.45
2022-10-03T04:45:25.633Z,10.20
2022-10-03T04:48:18.944Z,10.25
2022-10-03T04:51:01.513Z,4.50
2022-10-03T04:53:42.388Z,4.22
2022-10-03T04:56:24.521Z,2.95
2022-10-03T04:59:27.882Z,3.10
2022-10-03T05:02:21.215Z,5.60
2022-10-03T05:05:24.927Z,7.97
2022-10-03T05:08:04.805Z,9.75
2022-10-03T05:10:57.288Z,8.77
2022-10-03T05:13:39.040Z,28.60
2022-10-03T05:16:29.182Z,10.55
2022-10-03T05:19:33.415Z,6.07
2022-10-03T05:22:23.636Z,10.20
2022-10-03T05:25:16.558Z,7.80
2022-10-03T05:27:51.799Z,6.03
2022-10-03T05:30:43.347Z,3.05
2022-10-03T05:33:27.404Z,2.50
2022-10-03T05:36:16.542Z,4.88
2022-10-03T05:38:53.222Z,3.58
2022-10-03T05:41:28.451Z,3.20
2022-10-03T05:44:01.658Z,3.05
2022-10-03T05:46:42.309Z,2.72
2022-10-03T05:49:43.147Z,2.70
2022-10-03T05:52:50.442Z,3.80
2022-10-03T05:55:45.099Z,3.90
2022-10-03T05:58:28.770Z,4.50
2022-10-03T06:01:35.276Z,4.53
2022-10-03T06:04:19.747Z,3.45
2022-10-03T06:07:08.342Z,2.85
2022-10-03T06:09:55.152Z,3.20
2022-10-03T06:12:31.990Z,3.03
2022-10-03T06:15:13.949Z,2.67
2022-10-03T06:17:53.671Z,3.80
2022-10-03T06:20:48.490Z,3.10
2022-10-03T06:23:18.370Z,2.95
2022-10-03T06:26:08.561Z,2.90
2022-10-03T06:28:41.522Z,2.63
2022-10-03T06:31:32.895Z,3.22
2022-10-03T06:34:14.575Z,7.32
2022-10-03T06:37:20.526Z,2.95
2022-10-03T06:40:40.061Z,2.65
2022-10-03T06:43:35.381Z,2.72
2022-10-03T06:46:39.818Z,3.35
2022-10-03T06:49:44.196Z,3.35
2022-10-03T06:52:33.195Z,3.08
2022-10-03T06:55:24.916Z,3.65
2022-10-03T06:58:27.629Z,3.58
2022-10-03T07:01:14.273Z,5.45
2022-10-03T07:04:18.872Z,4.25
2022-10-03T07:07:05.793Z,4.85
2022-10-03T07:10:11.879Z,3.90
2022-10-03T07:12:57.757Z,4.82
2022-10-03T07:16:25.585Z,8.48
2022-10-03T07:19:20.216Z,13.75
2022-10-03T07:22:05.414Z,4.75
2022-10-03T07:27:48.772Z,4.65
2022-10-03T07:30:22.168Z,5.63
2022-10-03T07:33:03.855Z,6.43
2022-10-03T07:36:30.833Z,6.68
2022-10-03T07:39:33.311Z,10.95
2022-10-03T07:42:28.331Z,14.57
2022-10-03T07:45:30.371Z,9.77
2022-10-03T07:48:12.118Z,10.75
2022-10-03T07:50:57.430Z,9.88
2022-10-03T07:54:06.090Z,5.22
2022-10-03T07:57:00.615Z,4.18
2022-10-03T07:59:40.386Z,4.22
2022-10-03T08:02:44.752Z,4.43
2022-10-03T08:05:37.290Z,4.63
2022-10-03T08:08:29.011Z,4.53
2022-10-03T08:11:15.160Z,9.93
2022-10-03T08:14:26.974Z,5.43
2022-10-03T08:17:06.105Z,5.28
2022-10-03T08:20:13.352Z,5.35
2022-10-03T08:23:02.481Z,3.80
2022-10-03T08:25:35.444Z,2.83
2022-10-03T08:28:17.632Z,2.50
2022-10-03T08:31:26.110Z,2.33
2022-10-03T08:34:18.606Z,3.22
2022-10-03T08:37:17.635Z,2.08
2022-10-03T08:39:44.775Z,7.78
2022-10-03T08:43:09.215Z,59.65
2022-10-03T08:45:52.543Z,29.48
2022-10-03T08:48:41.237Z,12.02
2022-10-03T08:51:31.559Z,2.10
2022-10-03T08:54:27.247Z,3.40
2022-10-03T08:59:51.049Z,1.80
2022-10-03T09:02:34.348Z,1.90
2022-10-03T09:05:22.671Z,2.10
2022-10-03T09:08:14.128Z,1.90
2022-10-03T09:11:04.061Z,1.80
2022-10-03T09:13:57.008Z,1.80
2022-10-03T09:16:35.634Z,1.67
2022-10-03T09:20:00.719Z,3.72
2022-10-03T09:23:04.043Z,2.45
2022-10-03T09:25:40.490Z,2.80
2022-10-03T09:28:28.390Z,2.25
2022-10-03T09:31:29.394Z,6.82
2022-10-03T09:34:42.766Z,3.47
2022-10-03T09:37:21.357Z,3.53
2022-10-03T09:40:07.010Z,2.80
2022-10-03T09:43:11.323Z,2.17
2022-10-03T09:45:51.217Z,2.83
2022-10-03T09:48:38.475Z,2.92
2022-10-03T09:51:43.075Z,2.60
2022-10-03T09:54:25.691Z,1.92
2022-10-03T09:57:13.552Z,1.70
2022-10-03T10:00:27.689Z,1.55
2022-10-03T10:03:08.482Z,1.30
2022-10-03T10:06:04.683Z,1.35
2022-10-03T10:08:51.721Z,1.15
2022-10-03T10:11:35.018Z,1.20
2022-10-03T10:14:38.036Z,1.65
2022-10-03T10:17:23.201Z,1.40
2022-10-03T10:20:15.613Z,1.25
2022-10-03T10:23:04.599Z,1.55
2022-10-03T10:25:50.161Z,1.33
2022-10-03T10:28:17.454Z,1.65
2022-10-03T10:31:02.709Z,1.08
2022-10-03T10:34:07.418Z,1.20
2022-10-03T10:37:11.922Z,1.13
2022-10-03T10:40:10.432Z,1.25
2022-10-03T10:42:59.179Z,3.17
2022-10-03T10:45:26.456Z,2.03
2022-10-03T10:48:27.486Z,6.60
2022-10-03T10:51:22.605Z,8.68
2022-10-03T10:54:04.354Z,16.00
2022-10-03T10:56:59.603Z,22.17
2022-10-03T10:59:47.553Z,43.83
2022-10-03T11:02:52.230Z,17.70
2022-10-03T11:05:46.863Z,5.05
2022-10-03T11:08:32.325Z,2.40
2022-10-03T11:14:17.873Z,2.40
2022-10-03T11:17:03.481Z,2.60
2022-10-03T11:20:05.554Z,2.75
2022-10-03T11:23:02.453Z,1.42
2022-10-03T11:26:18.248Z,2.17
2022-10-03T11:29:04.106Z,4.05
2022-10-03T11:32:08.387Z,36.05
2022-10-03T11:34:50.663Z,22.88
2022-10-03T11:37:36.969Z,19.45
2022-10-03T11:40:22.599Z,10.70
2022-10-03T11:43:14.695Z,10.63
2022-10-03T11:45:54.080Z,29.77
2022-10-03T11:48:46.248Z,26.73
2022-10-03T11:51:18.862Z,46.20
2022-10-03T11:54:26.388Z,44.88
2022-10-03T11:57:00.040Z,31.85
2022-10-03T11:59:46.075Z,6.93
2022-10-03T12:03:00.839Z,6.60
2022-10-03T12:05:40.050Z,6.07
2022-10-03T12:08:40.715Z,4.85
2022-10-03T12:11:28.518Z,4.43
2022-10-03T12:14:17.217Z,5.45
2022-10-03T12:17:15.937Z,6.50
2022-10-03T12:20:04.927Z,3.60
2022-10-03T12:22:32.295Z,3.90
2022-10-03T12:25:24.108Z,2.60
2022-10-03T12:28:29.647Z,9.50
2022-10-03T12:31:26.795Z,38.38
2022-10-03T12:34:18.058Z,114.18
2022-10-03T12:37:02.784Z,27.75
2022-10-03T12:39:52.452Z,37.50
2022-10-03T12:42:51.209Z,32.35
2022-10-03T12:45:31.744Z,19.00
2022-10-03T12:48:48.508Z,14.48
2022-10-03T12:51:22.963Z,16.80
2022-10-03T12:54:37.277Z,51.72
2022-10-03T12:57:33.233Z,25.45
2022-10-03T13:02:48.055Z,39.38
2022-10-03T13:05:37.646Z,33.85
2022-10-03T13:08:33.840Z,16.52
2022-10-03T13:11:23.944Z,39.00
2022-10-03T13:14:15.673Z,47.83
2022-10-03T13:17:08.640Z,20.92
2022-10-03T13:19:57.809Z,14.40
2022-10-03T13:22:34.327Z,27.00
2022-10-03T13:25:13.834Z,10.95
2022-10-03T13:28:12.878Z,25.77
2022-10-03T13:30:54.026Z,15.57
2022-10-03T13:33:29.591Z,27.48
2022-10-03T13:36:09.840Z,28.58
2022-10-03T13:39:06.629Z,30.45
2022-10-03T13:42:14.857Z,15.45
2022-10-03T13:45:03.493Z,26.63
2022-10-03T13:47:59.155Z,34.08
2022-10-03T13:50:36.705Z,32.03
2022-10-03T13:53:43.336Z,46.70
2022-10-03T13:56:31.032Z,12.68
2022-10-03T13:59:04.165Z,10.38
2022-10-03T14:01:46.195Z,35.30
2022-10-03T14:04:35.314Z,18.60
2022-10-03T14:07:07.954Z,11.82
2022-10-03T14:09:54.349Z,24.58
2022-10-03T14:13:00.677Z,18.90
2022-10-03T14:15:41.300Z,10.18
2022-10-03T14:18:20.361Z,11.55
2022-10-03T14:20:53.780Z,8.60
2022-10-03T14:23:47.837Z,31.75
2022-10-03T14:26:29.456Z,10.95
2022-10-03T14:29:08.253Z,9.27
2022-10-03T14:31:45.041Z,16.02
2022-10-03T14:34:35.548Z,9.57
2022-10-03T14:37:30.923Z,14.50
2022-10-03T14:40:12.677Z,7.82
2022-10-03T14:42:58.581Z,8.15
2022-10-03T14:45:38.085Z,7.78
2022-10-03T14:48:14.839Z,5.18
2022-10-03T14:50:42.567Z,6.15
2022-10-03T14:53:20.399Z,6.88
2022-10-03T14:56:03.791Z,4.65
2022-10-03T14:58:36.187Z,4.07
2022-10-03T15:01:07.829Z,3.17
2022-10-03T15:03:39.307Z,6.15
2022-10-03T15:06:12.585Z,11.38
2022-10-03T15:08:42.960Z,23.02
2022-10-03T15:11:13.961Z,8.35
2022-10-03T15:13:47.386Z,5.95
2022-10-03T15:16:18.373Z,9.00
2022-10-03T15:19:10.181Z,10.57
2022-10-03T15:21:42.297Z,10.65
2022-10-03T15:24:31.985Z,11.30
2022-10-03T15:27:04.419Z,12.98
2022-10-03T15:29:33.125Z,17.55
2022-10-03T15:32:03.136Z,12.77
2022-10-03T15:34:39.695Z,10.50
2022-10-03T15:37:16.858Z,7.05
2022-10-03T15:39:45.825Z,5.75
2022-10-03T15:42:25.625Z,7.32
2022-10-03T15:44:58.908Z,5.45
2022-10-03T15:47:32.376Z,6.20
2022-10-03T15:50:13.979Z,4.38
2022-10-03T15:52:46.772Z,8.10
2022-10-03T15:55:22.168Z,9.05
2022-10-03T15:57:52.966Z,4.38
2022-10-03T16:00:24.594Z,5.50
2022-10-03T16:03:12.630Z,7.43
2022-10-03T16:05:56.580Z,5.35
2022-10-03T16:08:28.448Z,9.90
2022-10-03T16:11:14.239Z,9.73
2022-10-03T16:13:57.144Z,15.93
2022-10-03T16:16:38.380Z,11.80
2022-10-03T16:19:23.851Z,11.15
2022-10-03T16:22:21.410Z,13.73
2022-10-03T16:25:15.963Z,14.38
2022-10-03T16:27:52.944Z,29.73
2022-10-03T16:30:38.417Z,11.90
2022-10-03T16:33:27.366Z,10.98
2022-10-03T16:36:07.142Z,8.35
2022-10-03T16:38:44.282Z,4.78
2022-10-03T16:41:22.148Z,9.20
2022-10-03T16:43:59.548Z,8.13
2022-10-03T16:46:32.594Z,7.35
2022-10-03T16:49:21.960Z,8.43
2022-10-03T16:52:00.657Z,6.80
2022-10-03T16:54:29.248Z,8.63
2022-10-03T16:57:00.048Z,11.15
2022-10-03T16:59:30.438Z,8.63
2022-10-03T17:02:05.463Z,6.95
2022-10-03T17:07:23.732Z,15.32
2022-10-03T17:09:53.401Z,14.20
2022-10-03T17:12:23.668Z,17.10
2022-10-03T17:14:54.635Z,26.33
2022-10-03T17:17:51.336Z,28.60
2022-10-03T17:20:27.882Z,13.38
2022-10-03T17:23:02.415Z,17.55
2022-10-03T17:25:50.262Z,9.93
2022-10-03T17:28:37.617Z,10.52
2022-10-03T17:31:15.297Z,10.90
2022-10-03T17:33:48.511Z,17.80
2022-10-03T17:36:43.145Z,26.23
2022-10-03T17:39:42.900Z,13.88
2022-10-03T17:42:38.087Z,13.23
2022-10-03T17:45:33.374Z,11.80
2022-10-03T17:48:06.289Z,8.52
2022-10-03T17:50:48.656Z,11.55
2022-10-03T17:53:29.596Z,11.77
2022-10-03T17:56:01.341Z,10.80
2022-10-03T17:58:31.486Z,14.35
2022-10-03T18:01:10.265Z,73.95
2022-10-03T18:03:40.403Z,37.80
2022-10-03T18:06:44.841Z,48.92
2022-10-03T18:09:15.069Z,34.83
2022-10-03T18:11:52.847Z,28.05
2022-10-03T18:14:32.137Z,19.50
2022-10-03T18:17:19.761Z,20.85
2022-10-03T18:20:06.195Z,24.30
2022-10-03T18:22:41.012Z,114.82
2022-10-03T18:26:18.560Z,73.93
2022-10-03T18:28:55.886Z,34.15
2022-10-03T18:31:25.153Z,25.05
2022-10-03T18:33:57.069Z,26.60
2022-10-03T18:36:30.614Z,17.23
2022-10-03T18:39:03.669Z,20.38
2022-10-03T18:41:30.979Z,31.23
2022-10-03T18:44:01.252Z,24.55
2022-10-03T18:46:41.088Z,22.77
2022-10-03T18:49:32.786Z,27.40
2022-10-03T18:52:16.094Z,20.95
2022-10-03T18:54:55.162Z,23.65
2022-10-03T18:57:32.856Z,20.48
2022-10-03T19:00:06.174Z,15.98
2022-10-03T19:02:54.963Z,15.50
2022-10-03T19:05:28.171Z,17.70
2022-10-03T19:08:17.014Z,15.52
2022-10-03T19:11:31.915Z,15.93
2022-10-03T19:14:10.320Z,16.90
2022-10-03T19:16:58.944Z,16.42
2022-10-03T19:19:31.814Z,20.63
2022-10-03T19:22:05.875Z,45.60
2022-10-03T19:24:57.183Z,28.05
2022-10-03T19:27:29.833Z,23.17
2022-10-03T19:29:59.073Z,20.77
2022-10-03T19:32:32.118Z,18.98
2022-10-03T19:35:04.291Z,25.30
2022-10-03T19:38:04.093Z,21.63
2022-10-03T19:40:45.056Z,20.30
2022-10-03T19:43:21.356Z,23.00
2022-10-03T19:46:15.992Z,22.02
2022-10-03T19:49:06.297Z,17.00
2022-10-03T19:51:33.514Z,19.20
2022-10-03T19:54:03.195Z,18.30
2022-10-03T19:56:34.792Z,19.48
2022-10-03T19:59:13.983Z,21.17
2022-10-03T20:01:46.860Z,19.52
2022-10-03T20:04:18.975Z,35.33
2022-10-03T20:06:50.330Z,22.95
2022-10-03T20:09:17.475Z,21.02
2022-10-03T20:12:12.294Z,17.92
2022-10-03T20:14:42.186Z,13.60
2022-10-03T20:17:22.964Z,14.10
2022-10-03T20:20:07.969Z,16.35
2022-10-03T20:22:39.215Z,12.52
2022-10-03T20:25:19.478Z,15.85
2022-10-03T20:27:50.693Z,12.77
2022-10-03T20:30:45.895Z,10.73
2022-10-03T20:33:27.723Z,12.00
2022-10-03T20:36:07.329Z,14.27
2022-10-03T20:38:48.267Z,12.60
2022-10-03T20:41:27.356Z,9.32
2022-10-03T20:44:14.993Z,9.00
2022-10-03T20:46:51.146Z,8.55
2022-10-03T20:49:41.590Z,8.95
2022-10-03T20:52:20.576Z,8.75
2022-10-03T20:54:48.803Z,7.38
2022-10-03T20:57:25.824Z,7.95
2022-10-03T21:00:18.358Z,8.43
2022-10-03T21:02:57.434Z,8.23
2022-10-03T21:05:43.182Z,7.63
2022-10-03T21:08:23.998Z,8.02
2022-10-03T21:10:56.615Z,8.55
2022-10-03T21:13:54.695Z,7.90
2022-10-03T21:16:27.213Z,8.13
2022-10-03T21:19:01.950Z,8.02
2022-10-03T21:21:43.085Z,7.93
2022-10-03T21:24:27.777Z,7.32
2022-10-03T21:26:59.366Z,7.70
2022-10-03T21:29:32.523Z,6.63
2022-10-03T21:32:18.489Z,7.82
2022-10-03T21:35:18.895Z,7.72
2022-10-03T21:38:12.212Z,7.43
2022-10-03T21:40:48.933Z,7.15
2022-10-03T21:43:33.796Z,10.63
2022-10-03T21:46:07.285Z,8.23
2022-10-03T21:48:55.601Z,7.07
2022-10-03T21:51:49.607Z,7.80
2022-10-03T21:54:40.772Z,7.22
2022-10-03T21:57:11.992Z,6.68
2022-10-03T21:59:47.428Z,5.82
2022-10-03T22:02:22.029Z,6.38
2022-10-03T22:04:57.405Z,9.00
2022-10-03T22:07:43.824Z,4.40
2022-10-03T22:10:28.934Z,6.32
2022-10-03T22:15:43.351Z,5.32
2022-10-03T22:18:15.141Z,5.00
2022-10-03T22:20:59.934Z,4.97
2022-10-03T22:23:37.938Z,3.92
2022-10-03T22:26:42.474Z,4.68
2022-10-03T22:29:30.612Z,3.65
2022-10-03T22:32:02.171Z,2.92
2022-10-03T22:34:41.756Z,3.20
2022-10-03T22:37:08.917Z,2.85
2022-10-03T22:39:37.067Z,2.78
2022-10-03T22:42:08.197Z,3.53
2022-10-03T22:44:40.426Z,3.45
2022-10-03T22:47:13.513Z,3.45
2022-10-03T22:49:44.161Z,3.38
2022-10-03T22:52:23.936Z,2.78
2022-10-03T22:54:52.192Z,3.20
2022-10-03T22:57:19.872Z,2.97
2022-10-03T23:00:01.910Z,3.25
2022-10-03T23:02:34.161Z,4.05
2022-10-03T23:05:09.796Z,5.88
2022-10-03T23:07:53.153Z,7.18
2022-10-03T23:10:33.049Z,6.55
2022-10-03T23:13:39.329Z,4.38
2022-10-03T23:16:36.560Z,5.03
2022-10-03T23:19:29.712Z,4.50
2022-10-03T23:21:58.562Z,4.65
2022-10-03T23:24:37.410Z,5.00
2022-10-03T23:27:25.903Z,4.43
2022-10-03T23:30:11.355Z,4.32
2022-10-03T23:33:00.525Z,4.25
2022-10-03T23:35:30.798Z,5.82
2022-10-03T23:38:01.539Z,5.25
2022-10-03T23:40:39.771Z,4.32
2022-10-03T23:43:25.529Z,4.57
2022-10-03T23:45:56.062Z,6.70
2022-10-03T23:48:25.919Z,3.10
2022-10-03T23:51:02.387Z,3.40
2022-10-03T23:53:34.342Z,3.60
2022-10-03T23:56:04.611Z,3.50
2022-10-03T23:58:37.662Z,3.22
